Strona główna
METAR-TAF:

METAR-TAF

Lotnisko :

Baker Municipal Airport

Baker, Montana, Stany Zjednoczone

Szerokość geograficzna: 46-20-52N, Długość geograficzna: 104-15-27W, wysokość: 905 m

Aktualna obserwacja pogody

Raport powstał 1 godzina i 11 minut temu, godzina 02:51 UTC
Wiatr 7 kt od północ
Temperatura 15°C
Wilgotność 55%
Ciśnienie 1020 hPa
Widzialność: 16.1 km
Mało chmury na wysokości 11000 ft

METAR: KBHK 280251Z AUTO 35007KT 10SM FEW110 15/06 A3013 RMK AO2 SLP192 T01500061 53012

czas: 22:02 (04:02 UTC)


TAF: brakujący

Obserwacja i prognoza pogody dla ponad 4000 lotnisk (raport METAR i TAF).

Dostępne stacje oznaczono żółtymi i czerwonymi punktami na mapie.

Najedź kursorem aby zobaczyć nazwę stacji.

Kliknij aby zobaczyć obserwacje i prognozy pogody.

Aby zmienić mapę: kliknij na zielony przycisk z czarnym krzyżykiem, aby powiększyć; na zielony przycisk z myślnikiem, aby pomniejszyć; na zielone strzałki, aby przejść do map sąsiednich.


METAR-TAF: